createdAt,value
2023-05-05T00:03:00.592Z,101413.56
2023-05-05T00:07:02.547Z,101411.97
2023-05-05T00:11:04.353Z,101409.59
2023-05-05T00:15:07.556Z,101403.81
2023-05-05T00:19:09.354Z,101397.25
2023-05-05T00:23:11.182Z,101376.00
2023-05-05T00:27:13.001Z,101361.59
2023-05-05T00:31:18.206Z,101344.31
2023-05-05T00:35:20.602Z,101336.81
2023-05-05T00:39:22.356Z,101329.75
2023-05-05T00:43:24.136Z,101322.50
2023-05-05T00:47:25.936Z,101312.56
2023-05-05T00:51:28.534Z,101307.38
2023-05-05T00:55:31.083Z,101321.00
2023-05-05T00:59:34.193Z,101321.34
2023-05-05T01:03:38.404Z,101326.94
2023-05-05T01:08:04.664Z,101330.44
2023-05-05T01:12:24.391Z,101340.41
2023-05-05T01:16:33.473Z,101336.88
2023-05-05T01:21:07.633Z,101351.16
2023-05-05T01:25:20.516Z,101340.41
2023-05-05T01:30:02.290Z,101348.47
2023-05-05T01:34:08.766Z,101344.13
2023-05-05T01:38:21.893Z,101349.22
2023-05-05T01:42:25.177Z,101362.75
2023-05-05T01:46:28.540Z,101368.25
2023-05-05T01:50:31.146Z,101388.00
2023-05-05T01:54:34.904Z,101382.50
2023-05-05T01:58:38.300Z,101375.81
2023-05-05T02:02:42.090Z,101383.63
2023-05-05T02:06:47.693Z,101386.84
2023-05-05T02:10:50.743Z,101397.13
2023-05-05T02:14:53.549Z,101394.16
2023-05-05T02:18:56.357Z,101395.69
2023-05-05T02:22:59.337Z,101388.16
2023-05-05T02:27:03.901Z,101383.16
2023-05-05T02:31:08.803Z,101393.63
2023-05-05T02:35:23.301Z,101389.97
2023-05-05T02:39:31.580Z,101394.88
2023-05-05T02:43:41.099Z,101394.59
2023-05-05T02:47:43.230Z,101387.41
2023-05-05T02:51:45.358Z,101386.59
2023-05-05T02:56:01.541Z,101396.41
2023-05-05T03:00:31.570Z,101397.28
2023-05-05T03:04:41.911Z,101397.31
2023-05-05T03:09:06.502Z,101407.75
2023-05-05T03:13:10.806Z,101395.34
2023-05-05T03:17:18.980Z,101396.22
2023-05-05T03:21:21.735Z,101405.00
2023-05-05T03:25:47.967Z,101384.19
2023-05-05T03:30:04.164Z,101383.72
2023-05-05T03:34:08.716Z,101394.50
2023-05-05T03:38:17.951Z,101382.75
2023-05-05T03:42:21.152Z,101389.50
2023-05-05T03:46:23.117Z,101399.91
2023-05-05T03:50:25.145Z,101395.03
2023-05-05T03:54:27.077Z,101397.06
2023-05-05T03:58:28.919Z,101396.59
2023-05-05T04:02:31.625Z,101404.31
2023-05-05T04:06:33.573Z,101406.66
2023-05-05T04:10:36.163Z,101424.13
2023-05-05T04:14:38.270Z,101426.28
2023-05-05T04:18:40.864Z,101440.03
2023-05-05T04:22:43.007Z,101445.59
2023-05-05T04:26:45.323Z,101448.28
2023-05-05T04:30:47.747Z,101452.13
2023-05-05T04:34:49.784Z,101452.47
2023-05-05T04:38:52.013Z,101443.44
2023-05-05T04:42:53.936Z,101442.41
2023-05-05T04:46:56.711Z,101455.81
2023-05-05T04:50:58.868Z,101445.59
2023-05-05T04:55:01.535Z,101450.63
2023-05-05T04:59:03.595Z,101451.97
2023-05-05T05:03:05.801Z,101447.09
2023-05-05T05:07:08.216Z,101456.31
2023-05-05T05:11:10.110Z,101453.59
2023-05-05T05:15:13.526Z,101462.84
2023-05-05T05:19:15.443Z,101471.06
2023-05-05T05:23:17.426Z,101471.88
2023-05-05T05:27:20.158Z,101481.06
2023-05-05T05:31:24.518Z,101477.81
2023-05-05T05:35:26.844Z,101489.63
2023-05-05T05:39:28.893Z,101489.59
2023-05-05T05:43:30.957Z,101485.00
2023-05-05T05:47:32.960Z,101486.16
2023-05-05T05:51:35.483Z,101488.47
2023-05-05T05:55:37.485Z,101492.16
2023-05-05T05:59:39.489Z,101504.72
2023-05-05T06:03:41.968Z,101512.88
2023-05-05T06:07:43.973Z,101508.72
2023-05-05T06:11:46.184Z,101513.31
2023-05-05T06:15:48.188Z,101523.66
2023-05-05T06:19:52.426Z,101528.59
2023-05-05T06:23:56.367Z,101529.53
2023-05-05T06:28:00.235Z,101539.00
2023-05-05T06:32:02.232Z,101533.91
2023-05-05T06:36:04.364Z,101529.47
2023-05-05T06:40:08.091Z,101532.66
2023-05-05T06:44:11.505Z,101538.41
2023-05-05T06:48:13.436Z,101540.16
2023-05-05T06:52:15.238Z,101543.50
2023-05-05T06:56:17.365Z,101543.50
2023-05-05T07:00:19.747Z,101543.13
2023-05-05T07:04:21.842Z,101547.78
2023-05-05T07:08:23.678Z,101544.25
2023-05-05T07:12:25.524Z,101531.63
2023-05-05T07:16:27.601Z,101542.22
2023-05-05T07:20:29.552Z,101536.75
2023-05-05T07:24:31.396Z,101534.09
2023-05-05T07:28:35.144Z,101530.59
2023-05-05T07:32:37.007Z,101529.53
2023-05-05T07:36:38.936Z,101530.44
2023-05-05T07:40:40.961Z,101534.81
2023-05-05T07:44:42.876Z,101531.72
2023-05-05T07:48:44.858Z,101546.25
2023-05-05T07:52:51.855Z,101549.59
2023-05-05T07:57:02.102Z,101557.03
2023-05-05T08:01:06.604Z,101562.66
2023-05-05T08:05:09.022Z,101559.75
2023-05-05T08:09:12.018Z,101555.13
2023-05-05T08:13:13.819Z,101562.72
2023-05-05T08:17:18.248Z,101560.56
2023-05-05T08:21:20.239Z,101567.50
2023-05-05T08:25:22.164Z,101572.13
2023-05-05T08:29:24.211Z,101571.75
2023-05-05T08:33:26.420Z,101579.84
2023-05-05T08:37:28.415Z,101588.59
2023-05-05T08:41:30.292Z,101583.06
2023-05-05T08:45:32.728Z,101581.09
2023-05-05T08:49:43.851Z,101587.91
2023-05-05T08:53:54.554Z,101587.47
2023-05-05T08:57:58.224Z,101584.16
2023-05-05T09:02:01.798Z,101579.88
2023-05-05T09:06:04.370Z,101586.19
2023-05-05T09:10:08.267Z,101597.53
2023-05-05T09:14:10.356Z,101588.09
2023-05-05T09:18:13.266Z,101582.16
2023-05-05T09:22:15.276Z,101580.94
2023-05-05T09:26:17.234Z,101595.34
2023-05-05T09:30:25.127Z,101603.56
2023-05-05T09:34:27.295Z,101610.25
2023-05-05T09:38:29.070Z,101611.69
2023-05-05T09:42:32.005Z,101611.97
2023-05-05T09:46:34.377Z,101614.88
2023-05-05T09:50:44.182Z,101610.19
2023-05-05T09:54:53.564Z,101602.81
2023-05-05T09:59:08.583Z,101611.28
2023-05-05T10:03:10.472Z,101609.75
2023-05-05T10:07:24.403Z,101616.25
2023-05-05T10:11:26.248Z,101622.03
2023-05-05T10:15:28.349Z,101607.25
2023-05-05T10:19:35.226Z,101606.50
2023-05-05T10:24:08.203Z,101599.31
2023-05-05T10:28:16.776Z,101592.38
2023-05-05T10:32:52.925Z,101594.44
2023-05-05T10:36:51.613Z,101598.88
2023-05-05T10:40:55.218Z,101596.91
2023-05-05T10:44:57.075Z,101589.84
2023-05-05T10:49:27.997Z,101598.34
2023-05-05T10:53:36.087Z,101594.34
2023-05-05T10:57:41.911Z,101590.59
2023-05-05T11:01:43.791Z,101590.34
2023-05-05T11:06:03.760Z,101586.16
2023-05-05T11:10:11.010Z,101596.13
2023-05-05T11:14:21.424Z,101593.91
2023-05-05T11:18:40.422Z,101586.88
2023-05-05T11:23:05.342Z,101587.44
2023-05-05T11:27:07.380Z,101574.56
2023-05-05T11:31:09.151Z,101579.59
2023-05-05T11:35:11.548Z,101594.00
2023-05-05T11:39:49.265Z,101592.03
2023-05-05T11:43:51.133Z,101585.34
2023-05-05T11:47:53.196Z,101593.50
2023-05-05T11:52:02.678Z,101593.94
2023-05-05T11:56:12.409Z,101588.16
2023-05-05T12:00:14.814Z,101589.34
2023-05-05T12:04:17.567Z,101578.84
2023-05-05T12:08:19.656Z,101587.84
2023-05-05T12:12:33.220Z,101574.03
2023-05-05T12:16:35.321Z,101580.50
2023-05-05T12:20:37.285Z,101582.03
2023-05-05T12:24:39.161Z,101574.50
2023-05-05T12:28:48.014Z,101583.97
2023-05-05T12:32:49.941Z,101586.38
2023-05-05T12:36:52.307Z,101579.28
2023-05-05T12:40:55.966Z,101580.97
2023-05-05T12:44:57.882Z,101588.03
2023-05-05T12:49:07.166Z,101596.31
2023-05-05T12:53:09.287Z,101600.81
2023-05-05T12:57:11.649Z,101604.25
2023-05-05T13:01:13.520Z,101600.94
2023-05-05T13:05:15.393Z,101600.63
2023-05-05T13:09:30.508Z,101597.47
2023-05-05T13:13:32.625Z,101599.47
2023-05-05T13:17:34.940Z,101623.03
2023-05-05T13:21:36.966Z,101621.22
2023-05-05T13:25:38.786Z,101613.16
2023-05-05T13:29:41.848Z,101601.41
2023-05-05T13:33:43.654Z,101601.41
2023-05-05T13:37:46.859Z,101603.47
2023-05-05T13:41:48.699Z,101594.22
2023-05-05T13:45:50.669Z,101570.00
2023-05-05T13:49:52.452Z,101572.50
2023-05-05T13:53:54.370Z,101582.28
2023-05-05T13:57:56.533Z,101574.91
2023-05-05T14:01:59.129Z,101569.97
2023-05-05T14:06:01.001Z,101571.91
2023-05-05T14:10:02.844Z,101572.28
2023-05-05T14:14:04.661Z,101571.28
2023-05-05T14:18:06.885Z,101567.25
2023-05-05T14:22:08.711Z,101569.44
2023-05-05T14:26:10.574Z,101572.81
2023-05-05T14:30:12.847Z,101571.31
2023-05-05T14:34:14.788Z,101573.66
2023-05-05T14:38:16.583Z,101580.28
2023-05-05T14:42:18.368Z,101581.00
2023-05-05T14:46:20.387Z,101572.03
2023-05-05T14:50:22.379Z,101567.09
2023-05-05T14:54:27.837Z,101559.00
2023-05-05T14:58:31.215Z,101567.34
2023-05-05T15:02:33.236Z,101561.81
2023-05-05T15:06:35.867Z,101569.28
2023-05-05T15:10:37.646Z,101564.59
2023-05-05T15:14:40.103Z,101561.44
2023-05-05T15:18:41.909Z,101561.69
2023-05-05T15:22:43.697Z,101550.44
2023-05-05T15:26:45.485Z,101545.44
2023-05-05T15:30:47.290Z,101547.44
2023-05-05T15:34:50.457Z,101545.22
2023-05-05T15:38:52.554Z,101551.44
2023-05-05T15:42:54.424Z,101548.72
2023-05-05T15:46:56.321Z,101547.16
2023-05-05T15:50:58.193Z,101543.91
2023-05-05T15:55:00.661Z,101547.66
2023-05-05T15:59:03.504Z,101555.94
2023-05-05T16:03:05.376Z,101543.41
2023-05-05T16:07:07.285Z,101535.50
2023-05-05T16:11:09.197Z,101536.56
2023-05-05T16:15:11.770Z,101538.97
2023-05-05T16:19:13.711Z,101545.56
2023-05-05T16:23:15.556Z,101539.41
2023-05-05T16:27:17.736Z,101534.16
2023-05-05T16:31:19.577Z,101531.47
2023-05-05T16:35:23.077Z,101535.59
2023-05-05T16:39:25.442Z,101523.50
2023-05-05T16:43:27.347Z,101518.88
2023-05-05T16:47:29.239Z,101527.13
2023-05-05T16:51:31.258Z,101527.13
2023-05-05T16:55:33.181Z,101521.31
2023-05-05T16:59:35.176Z,101523.88
2023-05-05T17:03:38.321Z,101530.88
2023-05-05T17:07:40.288Z,101525.53
2023-05-05T17:11:42.146Z,101533.28
2023-05-05T17:15:44.506Z,101520.19
2023-05-05T17:19:46.449Z,101513.88
2023-05-05T17:23:48.433Z,101512.31
2023-05-05T17:27:50.269Z,101505.34
2023-05-05T17:31:52.216Z,101516.06
2023-05-05T17:35:54.782Z,101511.56
2023-05-05T17:39:56.571Z,101514.72
2023-05-05T17:43:59.668Z,101505.72
2023-05-05T17:48:01.555Z,101506.66
2023-05-05T17:52:03.526Z,101501.41
2023-05-05T17:56:07.282Z,101498.16
2023-05-05T18:00:11.036Z,101501.38
2023-05-05T18:04:16.095Z,101503.94
2023-05-05T18:08:18.678Z,101507.59
2023-05-05T18:12:20.653Z,101502.41
2023-05-05T18:16:22.625Z,101507.97
2023-05-05T18:20:24.554Z,101516.06
2023-05-05T18:24:27.673Z,101501.66
2023-05-05T18:28:29.539Z,101504.09
2023-05-05T18:32:31.546Z,101508.56
2023-05-05T18:36:33.445Z,101512.50
2023-05-05T18:40:35.288Z,101511.34
2023-05-05T18:44:37.181Z,101525.22
2023-05-05T18:48:39.053Z,101526.97
2023-05-05T18:52:40.949Z,101530.59
2023-05-05T18:56:42.801Z,101525.50
2023-05-05T19:00:44.679Z,101534.50
2023-05-05T19:04:46.606Z,101542.28
2023-05-05T19:08:48.493Z,101537.19
2023-05-05T19:12:50.763Z,101546.53
2023-05-05T19:16:53.068Z,101544.41
2023-05-05T19:20:54.945Z,101539.81
2023-05-05T19:24:56.830Z,101551.47
2023-05-05T19:28:59.550Z,101556.91
2023-05-05T19:33:01.471Z,101558.00
2023-05-05T19:37:03.449Z,101559.06
2023-05-05T19:41:05.433Z,101564.34
2023-05-05T19:45:07.862Z,101553.59
2023-05-05T19:49:09.802Z,101562.38
2023-05-05T19:53:11.993Z,101564.94
2023-05-05T19:57:13.864Z,101572.03
2023-05-05T20:01:15.770Z,101575.59
2023-05-05T20:05:17.908Z,101572.94
2023-05-05T20:09:19.979Z,101573.63
2023-05-05T20:13:21.932Z,101569.78
2023-05-05T20:17:24.038Z,101566.72
2023-05-05T20:21:25.873Z,101572.00
2023-05-05T20:25:27.704Z,101566.47
2023-05-05T20:29:29.632Z,101565.28
2023-05-05T20:33:31.480Z,101578.22
2023-05-05T20:37:33.356Z,101577.06
2023-05-05T20:41:36.415Z,101584.97
2023-05-05T20:45:41.479Z,101575.72
2023-05-05T20:49:43.348Z,101572.72
2023-05-05T20:53:45.192Z,101576.75
2023-05-05T20:57:47.157Z,101578.75
2023-05-05T21:01:49.112Z,101580.09
2023-05-05T21:05:50.985Z,101580.47
2023-05-05T21:09:52.790Z,101579.78
2023-05-05T21:13:54.577Z,101585.16
2023-05-05T21:17:57.348Z,101574.75
2023-05-05T21:21:59.397Z,101585.81
2023-05-05T21:26:02.482Z,101594.38
2023-05-05T21:30:04.672Z,101595.91
2023-05-05T21:34:06.474Z,101588.34
2023-05-05T21:38:08.580Z,101589.53
2023-05-05T21:42:10.562Z,101575.41
2023-05-05T21:46:12.539Z,101581.28
2023-05-05T21:50:14.387Z,101574.72
2023-05-05T21:54:16.358Z,101575.09
2023-05-05T21:58:18.239Z,101587.81
2023-05-05T22:02:20.355Z,101584.47
2023-05-05T22:06:22.545Z,101581.13
2023-05-05T22:10:24.406Z,101571.22
2023-05-05T22:14:26.459Z,101568.38
2023-05-05T22:18:28.288Z,101564.69
2023-05-05T22:22:30.112Z,101569.72
2023-05-05T22:26:31.903Z,101561.81
2023-05-05T22:30:34.272Z,101554.28
2023-05-05T22:34:36.208Z,101556.63
2023-05-05T22:38:38.015Z,101562.19
2023-05-05T22:42:39.932Z,101557.63
2023-05-05T22:46:42.336Z,101559.31
2023-05-05T22:50:44.114Z,101556.81
2023-05-05T22:54:45.988Z,101549.75
2023-05-05T22:58:47.772Z,101552.59
2023-05-05T23:02:49.679Z,101547.75
2023-05-05T23:06:52.146Z,101549.91
2023-05-05T23:10:54.077Z,101548.56
2023-05-05T23:14:56.009Z,101550.91
2023-05-05T23:18:57.826Z,101547.56
2023-05-05T23:22:59.662Z,101549.91
2023-05-05T23:27:04.605Z,101537.47
2023-05-05T23:31:06.524Z,101542.00
2023-05-05T23:35:09.250Z,101546.53
2023-05-05T23:39:13.395Z,101539.84
2023-05-05T23:43:15.207Z,101535.91
2023-05-05T23:47:17.056Z,101529.38
2023-05-05T23:51:18.912Z,101525.69
2023-05-05T23:55:21.286Z,101528.69
2023-05-05T23:59:23.128Z,101527.34
